createdAt,value
2018-07-26T00:00:00.610Z,99.90
2018-07-26T00:02:28.454Z,99.90
2018-07-26T00:04:56.594Z,99.90
2018-07-26T00:07:24.545Z,99.90
2018-07-26T00:12:20.230Z,99.90
2018-07-26T00:17:15.866Z,99.90
2018-07-26T00:19:43.700Z,99.90
2018-07-26T00:22:11.487Z,99.90
2018-07-26T00:24:39.313Z,99.90
2018-07-26T00:27:07.458Z,99.90
2018-07-26T00:29:36.620Z,99.90
2018-07-26T00:32:04.431Z,99.90
2018-07-26T00:34:32.274Z,99.90
2018-07-26T00:37:00.034Z,99.90
2018-07-26T00:39:27.880Z,99.90
2018-07-26T00:44:23.509Z,99.90
2018-07-26T00:46:51.305Z,99.90
2018-07-26T00:49:19.106Z,99.90
2018-07-26T00:51:46.961Z,99.90
2018-07-26T00:54:14.807Z,99.90
2018-07-26T00:56:42.626Z,99.90
2018-07-26T00:59:10.454Z,99.90
2018-07-26T01:01:38.254Z,99.90
2018-07-26T01:04:06.225Z,99.90
2018-07-26T01:09:01.853Z,99.90
2018-07-26T01:13:57.506Z,99.90
2018-07-26T01:16:25.405Z,99.90
2018-07-26T01:18:53.206Z,99.90
2018-07-26T01:21:21.030Z,99.90
2018-07-26T01:23:48.898Z,99.90
2018-07-26T01:26:16.761Z,99.90
2018-07-26T01:28:44.608Z,99.90
2018-07-26T01:31:12.414Z,99.90
2018-07-26T01:33:40.266Z,99.90
2018-07-26T01:36:08.171Z,99.90
2018-07-26T01:41:03.732Z,99.90
2018-07-26T01:43:52.878Z,99.90
2018-07-26T01:46:21.915Z,99.90
2018-07-26T01:48:49.677Z,99.90
2018-07-26T01:51:17.509Z,99.90
2018-07-26T01:53:45.576Z,99.90
2018-07-26T01:58:41.226Z,99.90
2018-07-26T02:01:09.925Z,99.90
2018-07-26T02:03:38.344Z,99.90
2018-07-26T02:08:34.208Z,99.90
2018-07-26T02:11:02.060Z,99.90
2018-07-26T02:13:30.732Z,99.90
2018-07-26T02:18:26.559Z,99.90
2018-07-26T02:23:22.596Z,99.90
2018-07-26T02:28:18.124Z,99.90
2018-07-26T02:33:14.258Z,99.90
2018-07-26T02:35:42.352Z,99.90
2018-07-26T02:40:38.528Z,99.90
2018-07-26T02:43:06.910Z,99.90
2018-07-26T02:45:34.843Z,99.90
2018-07-26T02:48:02.661Z,99.90
2018-07-26T02:50:30.463Z,99.90
2018-07-26T02:52:58.290Z,99.90
2018-07-26T02:55:26.134Z,99.90
2018-07-26T02:57:54.131Z,99.90
2018-07-26T03:00:21.985Z,99.90
2018-07-26T03:02:50.075Z,99.90
2018-07-26T03:05:17.960Z,99.90
2018-07-26T03:10:13.592Z,99.90
2018-07-26T03:15:10.834Z,99.90
2018-07-26T03:17:39.595Z,99.90
2018-07-26T03:20:07.456Z,99.90
2018-07-26T03:22:35.364Z,99.90
2018-07-26T03:25:03.247Z,99.90
2018-07-26T03:32:26.699Z,99.90
2018-07-26T03:34:54.487Z,99.90
2018-07-26T03:37:22.331Z,99.90
2018-07-26T03:39:50.502Z,99.90
2018-07-26T03:42:18.371Z,99.90
2018-07-26T03:44:46.243Z,99.90
2018-07-26T03:47:14.196Z,99.90
2018-07-26T03:49:41.988Z,99.90
2018-07-26T03:52:09.803Z,99.90
2018-07-26T03:54:37.620Z,99.90
2018-07-26T03:57:05.573Z,99.90
2018-07-26T03:59:33.371Z,99.90
2018-07-26T04:04:28.905Z,99.90
2018-07-26T04:09:24.441Z,99.90
2018-07-26T04:11:52.344Z,99.90
2018-07-26T04:14:20.132Z,99.90
2018-07-26T04:16:47.966Z,99.90
2018-07-26T04:19:15.798Z,99.90
2018-07-26T04:24:11.292Z,99.90
2018-07-26T04:26:39.105Z,99.90
2018-07-26T04:29:06.918Z,99.90
2018-07-26T04:31:34.798Z,99.90
2018-07-26T04:34:02.626Z,99.90
2018-07-26T04:36:30.425Z,99.90
2018-07-26T04:38:58.245Z,99.90
2018-07-26T04:41:26.074Z,99.90
2018-07-26T04:46:21.704Z,99.90
2018-07-26T04:51:17.378Z,99.90
2018-07-26T04:53:45.250Z,99.90
2018-07-26T04:56:13.104Z,99.90
2018-07-26T04:58:40.885Z,99.90
2018-07-26T05:01:08.729Z,99.90
2018-07-26T05:03:36.584Z,99.90
2018-07-26T05:06:04.603Z,99.90
2018-07-26T05:08:32.572Z,99.90
2018-07-26T05:11:00.460Z,99.90
2018-07-26T05:13:28.258Z,99.90
2018-07-26T05:15:56.165Z,99.90
2018-07-26T05:18:24.056Z,99.90
2018-07-26T05:20:51.920Z,99.90
2018-07-26T05:23:19.707Z,99.90
2018-07-26T05:28:15.364Z,99.90
2018-07-26T05:30:43.144Z,99.90
2018-07-26T05:33:10.966Z,99.90
2018-07-26T05:35:38.863Z,99.90
2018-07-26T05:38:06.745Z,99.90
2018-07-26T05:40:34.505Z,99.90
2018-07-26T05:43:02.482Z,99.90
2018-07-26T05:45:30.319Z,99.90
2018-07-26T05:48:02.159Z,99.90
2018-07-26T05:50:29.931Z,99.90
2018-07-26T05:52:57.816Z,99.90
2018-07-26T05:55:26.506Z,99.90
2018-07-26T05:57:54.443Z,99.90
2018-07-26T06:00:22.321Z,99.90
2018-07-26T06:02:50.137Z,99.90
2018-07-26T06:05:18.047Z,99.90
2018-07-26T06:07:45.964Z,99.90
2018-07-26T06:10:16.261Z,99.90
2018-07-26T06:12:44.104Z,99.90
2018-07-26T06:15:12.509Z,99.90
2018-07-26T06:17:40.866Z,99.90
2018-07-26T06:20:10.434Z,99.90
2018-07-26T06:25:06.764Z,99.90
2018-07-26T06:27:34.635Z,99.90
2018-07-26T06:30:02.591Z,99.90
2018-07-26T06:32:30.368Z,99.90
2018-07-26T06:34:58.201Z,99.90
2018-07-26T06:37:26.163Z,99.90
2018-07-26T06:39:54.105Z,99.90
2018-07-26T06:42:21.935Z,99.90
2018-07-26T06:47:17.687Z,99.90
2018-07-26T06:52:13.227Z,99.90
2018-07-26T06:54:41.142Z,99.90
2018-07-26T06:57:08.983Z,99.90
2018-07-26T06:59:42.336Z,99.90
2018-07-26T07:04:37.903Z,99.90
2018-07-26T07:07:05.750Z,99.90
2018-07-26T07:09:33.605Z,99.90
2018-07-26T07:14:29.373Z,99.90
2018-07-26T07:16:57.201Z,99.90
2018-07-26T07:21:52.757Z,99.90
2018-07-26T07:24:21.596Z,99.90
2018-07-26T07:26:50.875Z,99.90
2018-07-26T07:29:18.815Z,99.90
2018-07-26T07:31:46.583Z,99.90
2018-07-26T07:34:14.360Z,99.90
2018-07-26T07:36:42.174Z,99.90
2018-07-26T07:44:07.347Z,99.90
2018-07-26T07:46:35.260Z,99.90
2018-07-26T07:49:03.040Z,99.90
2018-07-26T07:51:30.876Z,99.90
2018-07-26T07:53:58.944Z,99.90
2018-07-26T07:56:26.758Z,99.90
2018-07-26T07:58:54.698Z,99.90
2018-07-26T08:03:50.162Z,99.90
2018-07-26T08:06:18.133Z,99.90
2018-07-26T08:08:46.059Z,99.90
2018-07-26T08:11:13.834Z,99.90
2018-07-26T08:13:41.745Z,99.90
2018-07-26T08:16:09.650Z,99.90
2018-07-26T08:21:05.158Z,99.90
2018-07-26T08:23:33.143Z,99.90
2018-07-26T08:28:28.706Z,99.90
2018-07-26T08:30:56.697Z,99.90
2018-07-26T08:33:24.500Z,99.90
2018-07-26T08:35:52.283Z,99.90
2018-07-26T08:38:20.172Z,99.90
2018-07-26T08:40:48.013Z,99.90
2018-07-26T08:45:43.523Z,99.90
2018-07-26T08:53:06.872Z,99.90
2018-07-26T08:55:34.792Z,99.90
2018-07-26T08:58:02.650Z,99.90
2018-07-26T09:02:58.238Z,99.90
2018-07-26T09:05:26.076Z,99.90
2018-07-26T09:07:53.876Z,99.90
2018-07-26T09:10:21.704Z,99.90
2018-07-26T09:15:17.271Z,99.90
2018-07-26T09:17:45.157Z,99.90
2018-07-26T09:27:36.440Z,99.60
2018-07-26T09:35:00.716Z,98.90
2018-07-26T09:37:28.520Z,99.00
2018-07-26T09:39:56.448Z,99.30
2018-07-26T09:42:24.265Z,99.40
2018-07-26T09:44:52.102Z,98.00
2018-07-26T09:49:47.646Z,98.20
2018-07-26T09:52:15.846Z,98.10
2018-07-26T09:54:43.663Z,97.40
2018-07-26T09:57:11.432Z,98.00
2018-07-26T10:02:07.020Z,97.00
2018-07-26T10:04:34.884Z,97.10
2018-07-26T10:07:02.833Z,97.10
2018-07-26T10:09:30.642Z,96.40
2018-07-26T10:11:58.429Z,96.90
2018-07-26T10:14:27.059Z,97.00
2018-07-26T10:16:54.920Z,96.90
2018-07-26T10:19:22.721Z,97.00
2018-07-26T10:26:45.917Z,96.40
2018-07-26T10:31:41.427Z,95.90
2018-07-26T10:34:09.199Z,96.00
2018-07-26T10:39:07.262Z,96.20
2018-07-26T10:41:35.089Z,95.90
2018-07-26T10:44:02.971Z,95.60
2018-07-26T10:46:30.863Z,95.30
2018-07-26T10:48:58.686Z,95.00
2018-07-26T10:51:26.545Z,95.00
2018-07-26T10:58:50.453Z,94.90
2018-07-26T11:01:18.709Z,94.60
2018-07-26T11:06:14.236Z,95.00
2018-07-26T11:11:09.883Z,94.70
2018-07-26T11:13:37.634Z,94.20
2018-07-26T11:18:33.210Z,94.20
2018-07-26T11:23:28.834Z,93.50
2018-07-26T11:25:56.749Z,93.20
2018-07-26T11:28:24.969Z,93.30
2018-07-26T11:30:52.842Z,93.30
2018-07-26T11:35:48.484Z,93.00
2018-07-26T11:38:16.408Z,92.50
2018-07-26T11:40:44.242Z,92.20
2018-07-26T11:43:12.089Z,92.50
2018-07-26T11:45:39.991Z,92.80
2018-07-26T11:48:07.832Z,93.20
2018-07-26T11:50:35.708Z,93.00
2018-07-26T11:53:03.532Z,92.40
2018-07-26T11:55:31.429Z,92.50
2018-07-26T11:57:59.298Z,93.50
2018-07-26T12:00:27.115Z,92.80
2018-07-26T12:02:55.020Z,93.00
2018-07-26T12:05:22.887Z,92.70
2018-07-26T12:07:51.397Z,92.40
2018-07-26T12:17:43.344Z,92.00
2018-07-26T12:20:11.286Z,91.90
2018-07-26T12:22:39.181Z,90.70
2018-07-26T12:25:07.097Z,90.20
2018-07-26T12:27:34.895Z,90.00
2018-07-26T12:32:30.511Z,88.90
2018-07-26T12:37:29.526Z,88.80
2018-07-26T12:39:57.377Z,90.10
2018-07-26T12:44:52.984Z,90.40
2018-07-26T12:47:20.910Z,90.10
2018-07-26T12:49:48.771Z,90.10
2018-07-26T12:52:18.482Z,90.00
2018-07-26T12:54:46.312Z,90.10
2018-07-26T12:57:14.219Z,90.40
2018-07-26T12:59:42.059Z,90.70
2018-07-26T13:02:09.897Z,89.00
2018-07-26T13:09:33.344Z,88.80
2018-07-26T13:12:01.192Z,87.90
2018-07-26T13:14:29.038Z,86.90
2018-07-26T13:16:56.897Z,86.80
2018-07-26T13:19:24.860Z,87.10
2018-07-26T13:21:52.714Z,85.90
2018-07-26T13:24:20.664Z,86.30
2018-07-26T13:26:48.474Z,87.50
2018-07-26T13:31:44.068Z,86.60
2018-07-26T13:34:11.917Z,85.40
2018-07-26T13:36:39.818Z,85.40
2018-07-26T13:39:10.637Z,85.00
2018-07-26T13:46:34.028Z,84.70
2018-07-26T13:51:29.696Z,83.40
2018-07-26T13:56:25.348Z,83.10
2018-07-26T13:58:53.219Z,84.20
2018-07-26T14:01:21.068Z,85.30
2018-07-26T14:03:49.162Z,85.60
2018-07-26T14:06:17.033Z,85.70
2018-07-26T14:08:45.041Z,86.10
2018-07-26T14:13:40.717Z,86.80
2018-07-26T14:16:08.699Z,87.70
2018-07-26T14:18:36.742Z,87.30
2018-07-26T14:23:38.314Z,87.40
2018-07-26T14:26:07.303Z,88.10
2018-07-26T14:28:35.172Z,85.50
2018-07-26T14:31:03.043Z,83.40
2018-07-26T14:33:30.904Z,81.20
2018-07-26T14:35:58.697Z,79.20
2018-07-26T14:38:26.606Z,78.80
2018-07-26T14:40:54.473Z,77.10
2018-07-26T14:45:50.244Z,77.50
2018-07-26T14:48:18.197Z,77.70
2018-07-26T14:50:46.016Z,78.30
2018-07-26T14:53:13.848Z,79.00
2018-07-26T14:55:42.093Z,79.30
2018-07-26T15:00:37.756Z,81.70
2018-07-26T15:03:05.703Z,82.40
2018-07-26T15:05:33.534Z,82.20
2018-07-26T15:08:01.349Z,82.40
2018-07-26T15:10:29.182Z,81.50
2018-07-26T15:12:57.059Z,81.90
2018-07-26T15:15:24.949Z,81.60
2018-07-26T15:17:52.839Z,78.60
2018-07-26T15:20:20.702Z,76.00
2018-07-26T15:25:22.022Z,72.40
2018-07-26T15:27:49.921Z,72.20
2018-07-26T15:30:17.857Z,71.70
2018-07-26T15:32:45.754Z,69.40
2018-07-26T15:37:41.784Z,68.00
2018-07-26T15:40:09.577Z,67.40
2018-07-26T15:42:37.533Z,65.90
2018-07-26T15:45:05.826Z,66.70
2018-07-26T15:47:33.714Z,64.60
2018-07-26T15:50:01.584Z,65.80
2018-07-26T15:52:29.470Z,63.20
2018-07-26T15:59:52.935Z,60.80
2018-07-26T16:12:12.588Z,60.20
2018-07-26T16:14:40.528Z,59.60
2018-07-26T16:17:08.474Z,59.70
2018-07-26T16:19:36.332Z,59.50
2018-07-26T16:22:04.175Z,58.50
2018-07-26T16:24:32.104Z,59.90
2018-07-26T16:31:55.770Z,60.30
2018-07-26T16:34:23.646Z,59.80
2018-07-26T16:36:51.573Z,58.80
2018-07-26T16:39:19.532Z,59.00
2018-07-26T16:41:47.450Z,60.00
2018-07-26T16:46:43.079Z,60.00
2018-07-26T16:51:38.780Z,59.70
2018-07-26T16:54:06.647Z,59.00
2018-07-26T16:56:34.492Z,59.50
2018-07-26T16:59:02.629Z,59.80
2018-07-26T17:01:30.403Z,59.40
2018-07-26T17:06:26.124Z,59.30
2018-07-26T17:11:21.873Z,58.80
2018-07-26T17:13:49.916Z,60.20
2018-07-26T17:16:17.822Z,59.50
2018-07-26T17:18:45.761Z,60.70
2018-07-26T17:23:41.407Z,59.90
2018-07-26T17:26:09.272Z,61.80
2018-07-26T17:33:32.706Z,60.50
2018-07-26T17:36:00.568Z,59.60
2018-07-26T17:38:28.443Z,60.20
2018-07-26T17:40:56.283Z,61.30
2018-07-26T17:43:24.382Z,60.80
2018-07-26T17:45:52.232Z,62.80
2018-07-26T17:48:20.076Z,63.80
2018-07-26T17:50:47.959Z,64.20
2018-07-26T17:53:15.806Z,63.10
2018-07-26T17:55:43.636Z,61.80
2018-07-26T18:00:39.190Z,64.30
2018-07-26T18:05:34.782Z,62.80
2018-07-26T18:12:58.234Z,61.70
2018-07-26T18:15:26.136Z,62.60
2018-07-26T18:17:53.975Z,64.50
2018-07-26T18:20:21.835Z,65.50
2018-07-26T18:22:49.668Z,65.90
2018-07-26T18:25:17.599Z,65.40
2018-07-26T18:30:13.464Z,65.40
2018-07-26T18:32:41.315Z,64.90
2018-07-26T18:35:09.195Z,64.40
2018-07-26T18:42:33.322Z,66.90
2018-07-26T18:45:01.207Z,68.70
2018-07-26T18:47:29.036Z,69.70
2018-07-26T18:49:56.960Z,69.80
2018-07-26T18:52:24.574Z,69.70
2018-07-26T18:54:52.657Z,69.00
2018-07-26T18:57:20.313Z,69.20
2018-07-26T18:59:47.998Z,70.80
2018-07-26T19:02:15.554Z,70.90
2018-07-26T19:04:43.188Z,70.70
2018-07-26T19:07:10.810Z,72.00
2018-07-26T19:09:38.378Z,70.50
2018-07-26T19:12:05.981Z,71.20
2018-07-26T19:14:33.875Z,72.00
2018-07-26T19:17:01.589Z,72.00
2018-07-26T19:19:29.208Z,73.10
2018-07-26T19:21:56.746Z,74.20
2018-07-26T19:24:24.318Z,75.80
2018-07-26T19:26:51.887Z,76.00
2018-07-26T19:29:19.475Z,75.60
2018-07-26T19:31:47.081Z,75.80
2018-07-26T19:36:42.347Z,76.00
2018-07-26T19:39:11.587Z,76.50
2018-07-26T19:41:39.485Z,76.20
2018-07-26T19:44:07.105Z,78.20
2018-07-26T19:46:34.682Z,78.70
2018-07-26T19:49:03.321Z,79.40
2018-07-26T19:51:31.082Z,79.20
2018-07-26T19:53:58.747Z,79.20
2018-07-26T19:56:26.315Z,79.70
2018-07-26T19:58:53.820Z,81.10
2018-07-26T20:03:48.952Z,80.50
2018-07-26T20:06:16.753Z,80.40
2018-07-26T20:08:44.376Z,80.90
2018-07-26T20:11:12.048Z,80.10
2018-07-26T20:16:07.234Z,80.70
2018-07-26T20:21:02.338Z,80.00
2018-07-26T20:25:57.479Z,82.30
2018-07-26T20:28:25.028Z,81.10
2018-07-26T20:35:47.966Z,82.90
2018-07-26T20:38:15.524Z,82.50
2018-07-26T20:40:43.079Z,82.20
2018-07-26T20:43:10.600Z,83.40
2018-07-26T20:45:38.126Z,83.40
2018-07-26T20:48:05.784Z,84.50
2018-07-26T20:50:33.395Z,84.70
2018-07-26T20:53:00.900Z,84.10
2018-07-26T20:55:28.451Z,84.30
2018-07-26T20:57:55.992Z,84.50
2018-07-26T21:00:23.522Z,85.00
2018-07-26T21:02:51.053Z,84.90
2018-07-26T21:05:18.725Z,85.40
2018-07-26T21:07:46.224Z,84.50
2018-07-26T21:10:13.809Z,84.70
2018-07-26T21:12:41.405Z,86.50
2018-07-26T21:15:09.499Z,86.00
2018-07-26T21:17:37.082Z,86.10
2018-07-26T21:20:04.784Z,86.90
2018-07-26T21:24:59.952Z,87.70
2018-07-26T21:27:27.508Z,88.20
2018-07-26T21:29:55.012Z,88.70
2018-07-26T21:32:22.632Z,88.40
2018-07-26T21:34:50.134Z,87.40
2018-07-26T21:39:45.306Z,87.50
2018-07-26T21:42:12.918Z,87.50
2018-07-26T21:44:40.507Z,88.10
2018-07-26T21:47:08.201Z,88.80
2018-07-26T21:49:35.717Z,89.00
2018-07-26T21:52:03.265Z,88.80
2018-07-26T21:54:30.822Z,88.90
2018-07-26T21:56:58.381Z,89.50
2018-07-26T21:59:25.998Z,90.00
2018-07-26T22:01:53.580Z,89.90
2018-07-26T22:04:21.204Z,89.90
2018-07-26T22:06:48.817Z,90.20
2018-07-26T22:09:16.395Z,90.50
2018-07-26T22:11:43.953Z,90.40
2018-07-26T22:14:11.623Z,90.60
2018-07-26T22:21:34.886Z,91.00
2018-07-26T22:24:02.468Z,91.50
2018-07-26T22:26:30.049Z,91.60
2018-07-26T22:28:57.836Z,91.30
2018-07-26T22:31:25.413Z,91.40
2018-07-26T22:33:53.562Z,91.20
2018-07-26T22:36:21.158Z,91.50
2018-07-26T22:38:49.577Z,91.80
2018-07-26T22:41:17.135Z,91.80
2018-07-26T22:43:44.613Z,91.90
2018-07-26T22:46:12.252Z,91.80
2018-07-26T22:48:40.015Z,92.40
2018-07-26T22:51:07.564Z,92.30
2018-07-26T22:53:35.080Z,92.40
2018-07-26T22:56:02.622Z,92.50
2018-07-26T22:58:30.136Z,92.90
2018-07-26T23:00:57.682Z,93.10
2018-07-26T23:03:25.174Z,93.10
2018-07-26T23:05:52.720Z,93.20
2018-07-26T23:08:20.224Z,93.50
2018-07-26T23:13:15.310Z,93.50
2018-07-26T23:15:42.795Z,93.70
2018-07-26T23:20:37.764Z,93.90
2018-07-26T23:23:05.299Z,94.30
2018-07-26T23:25:32.824Z,94.40
2018-07-26T23:28:00.361Z,94.50
2018-07-26T23:30:27.884Z,94.80
2018-07-26T23:32:55.455Z,95.20
2018-07-26T23:35:23.038Z,95.40
2018-07-26T23:37:50.562Z,95.80
2018-07-26T23:40:18.058Z,96.30
2018-07-26T23:42:45.671Z,96.30
2018-07-26T23:45:13.156Z,96.50
2018-07-26T23:47:40.659Z,96.70
2018-07-26T23:50:08.192Z,96.90
2018-07-26T23:52:35.717Z,97.50
2018-07-26T23:55:03.287Z,97.60
2018-07-26T23:57:30.804Z,97.60
2018-07-26T23:59:58.289Z,97.60
